createdAt,value
2023-04-12T00:00:34.819Z,47.44
2023-04-12T00:01:34.937Z,47.38
2023-04-12T00:02:35.226Z,47.25
2023-04-12T00:03:35.356Z,47.34
2023-04-12T00:04:35.477Z,47.32
2023-04-12T00:05:35.417Z,47.16
2023-04-12T00:06:35.555Z,47.19
2023-04-12T00:07:35.636Z,47.51
2023-04-12T00:08:35.744Z,47.34
2023-04-12T00:09:35.841Z,47.79
2023-04-12T00:10:35.955Z,47.38
2023-04-12T00:11:36.069Z,47.32
2023-04-12T00:12:36.200Z,47.35
2023-04-12T00:13:36.244Z,47.41
2023-04-12T00:14:36.286Z,47.42
2023-04-12T00:15:36.411Z,47.49
2023-04-12T00:16:36.440Z,48.15
2023-04-12T00:17:36.535Z,47.76
2023-04-12T00:18:36.621Z,48.01
2023-04-12T00:19:36.686Z,47.83
2023-04-12T00:20:36.742Z,47.58
2023-04-12T00:21:36.814Z,47.56
2023-04-12T00:22:36.884Z,47.46
2023-04-12T00:23:36.948Z,47.59
2023-04-12T00:24:37.002Z,47.64
2023-04-12T00:25:37.078Z,47.66
2023-04-12T00:26:37.143Z,47.55
2023-04-12T00:27:37.267Z,47.43
2023-04-12T00:28:37.385Z,47.52
2023-04-12T00:29:37.541Z,47.51
2023-04-12T00:30:37.608Z,47.45
2023-04-12T00:31:37.821Z,47.88
2023-04-12T00:32:37.831Z,47.67
2023-04-12T00:33:37.949Z,47.47
2023-04-12T00:34:38.070Z,47.51
2023-04-12T00:35:38.296Z,47.63
2023-04-12T00:36:38.268Z,47.76
2023-04-12T00:37:38.367Z,47.62
2023-04-12T00:38:38.449Z,47.76
2023-04-12T00:39:38.549Z,47.60
2023-04-12T00:40:38.714Z,47.58
2023-04-12T00:41:38.796Z,47.52
2023-04-12T00:42:38.884Z,47.50
2023-04-12T00:43:39.010Z,47.33
2023-04-12T00:44:39.112Z,47.43
2023-04-12T00:45:39.231Z,47.46
2023-04-12T00:46:39.379Z,47.61
2023-04-12T00:47:39.547Z,47.50
2023-04-12T00:48:39.594Z,47.65
2023-04-12T00:49:39.684Z,47.50
2023-04-12T00:50:39.811Z,48.13
2023-04-12T00:51:39.919Z,47.78
2023-04-12T00:52:40.004Z,47.76
2023-04-12T00:53:40.104Z,47.64
2023-04-12T00:54:40.206Z,47.53
2023-04-12T00:55:40.322Z,47.48
2023-04-12T00:56:40.412Z,47.51
2023-04-12T00:57:40.574Z,47.75
2023-04-12T00:58:40.579Z,47.67
2023-04-12T00:59:40.690Z,47.60
2023-04-12T01:00:40.852Z,47.83
2023-04-12T01:01:40.940Z,47.85
2023-04-12T01:02:41.119Z,47.91
2023-04-12T01:03:41.075Z,47.82
2023-04-12T01:04:41.076Z,47.70
2023-04-12T01:05:41.125Z,47.77
2023-04-12T01:06:41.282Z,47.81
2023-04-12T01:07:41.479Z,47.97
2023-04-12T01:08:41.605Z,48.06
2023-04-12T01:09:41.706Z,48.16
2023-04-12T01:10:41.814Z,48.12
2023-04-12T01:11:41.893Z,48.13
2023-04-12T01:12:41.962Z,48.31
2023-04-12T01:13:42.102Z,48.40
2023-04-12T01:14:42.164Z,48.17
2023-04-12T01:15:42.249Z,48.12
2023-04-12T01:16:42.404Z,48.27
2023-04-12T01:17:42.409Z,48.80
2023-04-12T01:18:42.459Z,48.81
2023-04-12T01:19:42.508Z,49.03
2023-04-12T01:20:42.568Z,49.08
2023-04-12T01:21:42.637Z,49.34
2023-04-12T01:22:42.699Z,49.35
2023-04-12T01:23:42.751Z,49.24
2023-04-12T01:24:42.837Z,49.07
2023-04-12T01:25:42.948Z,49.81
2023-04-12T01:26:42.911Z,50.66
2023-04-12T01:27:42.976Z,50.97
2023-04-12T01:28:43.040Z,50.18
2023-04-12T01:29:43.110Z,50.10
2023-04-12T01:30:43.241Z,50.10
2023-04-12T01:31:43.267Z,49.94
2023-04-12T01:32:43.320Z,49.75
2023-04-12T01:33:43.344Z,49.54
2023-04-12T01:34:43.392Z,49.56
2023-04-12T01:35:43.510Z,49.58
2023-04-12T01:36:43.512Z,49.44
2023-04-12T01:37:43.569Z,49.77
2023-04-12T01:38:43.634Z,49.68
2023-04-12T01:39:43.706Z,49.35
2023-04-12T01:40:43.763Z,49.23
2023-04-12T01:41:43.833Z,49.41
2023-04-12T01:42:43.900Z,49.46
2023-04-12T01:43:43.961Z,49.61
2023-04-12T01:44:44.033Z,49.66
2023-04-12T01:45:44.171Z,49.57
2023-04-12T01:46:44.143Z,49.53
2023-04-12T01:47:44.231Z,49.37
2023-04-12T01:48:44.257Z,49.38
2023-04-12T01:49:44.393Z,49.34
2023-04-12T01:50:44.399Z,49.40
2023-04-12T01:51:44.441Z,49.43
2023-04-12T01:52:44.491Z,49.46
2023-04-12T01:53:44.573Z,49.44
2023-04-12T01:54:44.625Z,49.69
2023-04-12T01:55:44.677Z,49.98
2023-04-12T01:56:44.745Z,49.99
2023-04-12T01:57:44.790Z,50.25
2023-04-12T01:58:44.853Z,50.54
2023-04-12T01:59:44.920Z,50.37
2023-04-12T02:00:45.061Z,50.16
2023-04-12T02:01:45.146Z,50.36
2023-04-12T02:02:45.248Z,50.99
2023-04-12T02:03:45.406Z,50.80
2023-04-12T02:04:45.320Z,51.27
2023-04-12T02:05:45.450Z,51.59
2023-04-12T02:06:45.553Z,51.56
2023-04-12T02:07:45.656Z,51.49
2023-04-12T02:08:45.751Z,51.24
2023-04-12T02:09:45.898Z,51.18
2023-04-12T02:10:45.952Z,51.28
2023-04-12T02:11:46.018Z,51.71
2023-04-12T02:12:46.116Z,52.17
2023-04-12T02:13:46.199Z,53.47
2023-04-12T02:14:46.277Z,52.87
2023-04-12T02:15:46.344Z,53.16
2023-04-12T02:16:46.495Z,53.45
2023-04-12T02:17:46.513Z,53.42
2023-04-12T02:18:46.611Z,53.20
2023-04-12T02:19:46.710Z,53.67
2023-04-12T02:20:46.796Z,53.39
2023-04-12T02:21:46.869Z,53.63
2023-04-12T02:22:46.938Z,53.71
2023-04-12T02:23:47.044Z,53.80
2023-04-12T02:24:47.061Z,54.17
2023-04-12T02:25:47.141Z,54.09
2023-04-12T02:26:47.212Z,53.99
2023-04-12T02:27:47.271Z,54.36
2023-04-12T02:28:47.344Z,54.41
2023-04-12T02:29:47.414Z,55.20
2023-04-12T02:30:47.528Z,55.30
2023-04-12T02:31:47.542Z,55.18
2023-04-12T02:32:47.686Z,55.50
2023-04-12T02:33:47.684Z,55.54
2023-04-12T02:34:47.771Z,57.33
2023-04-12T02:35:47.857Z,56.02
2023-04-12T02:36:47.886Z,56.11
2023-04-12T02:37:47.950Z,56.47
2023-04-12T02:38:48.750Z,56.50
2023-04-12T02:39:48.088Z,57.11
2023-04-12T02:40:48.170Z,57.28
2023-04-12T02:41:48.228Z,56.94
2023-04-12T02:42:48.298Z,57.67
2023-04-12T02:43:48.377Z,58.02
2023-04-12T02:44:48.446Z,58.28
2023-04-12T02:45:48.570Z,58.40
2023-04-12T02:46:48.604Z,58.96
2023-04-12T02:47:48.717Z,58.66
2023-04-12T02:48:48.775Z,58.68
2023-04-12T02:49:48.857Z,58.43
2023-04-12T02:50:48.975Z,57.89
2023-04-12T02:51:49.051Z,58.23
2023-04-12T02:52:49.145Z,58.65
2023-04-12T02:53:49.255Z,58.77
2023-04-12T02:54:49.336Z,59.23
2023-04-12T02:55:49.438Z,58.64
2023-04-12T02:56:49.536Z,59.28
2023-04-12T02:57:49.627Z,59.34
2023-04-12T02:58:49.736Z,58.88
2023-04-12T02:59:49.826Z,58.94
2023-04-12T03:00:49.925Z,58.66
2023-04-12T03:01:50.076Z,58.72
2023-04-12T03:02:50.257Z,58.49
2023-04-12T03:03:50.290Z,58.50
2023-04-12T03:04:50.313Z,58.06
2023-04-12T03:05:50.411Z,58.44
2023-04-12T03:06:50.509Z,58.27
2023-04-12T03:07:50.613Z,58.51
2023-04-12T03:08:50.709Z,58.01
2023-04-12T03:09:50.810Z,59.06
2023-04-12T03:10:50.904Z,59.45
2023-04-12T03:11:51.026Z,58.57
2023-04-12T03:12:51.104Z,58.70
2023-04-12T03:13:51.206Z,58.40
2023-04-12T03:14:51.295Z,58.64
2023-04-12T03:15:51.434Z,58.49
2023-04-12T03:16:51.505Z,58.88
2023-04-12T03:17:51.672Z,58.55
2023-04-12T03:18:51.714Z,59.28
2023-04-12T03:19:51.794Z,58.41
2023-04-12T03:20:51.879Z,58.65
2023-04-12T03:21:51.976Z,58.87
2023-04-12T03:22:52.061Z,58.85
2023-04-12T03:23:52.158Z,58.65
2023-04-12T03:24:52.251Z,58.84
2023-04-12T03:25:52.348Z,58.53
2023-04-12T03:26:52.439Z,58.20
2023-04-12T03:27:52.520Z,58.18
2023-04-12T03:28:52.609Z,58.54
2023-04-12T03:29:52.710Z,58.95
2023-04-12T03:30:52.851Z,59.26
2023-04-12T03:31:52.890Z,58.69
2023-04-12T03:32:53.079Z,58.95
2023-04-12T03:33:53.070Z,59.13
2023-04-12T03:34:53.170Z,59.06
2023-04-12T03:35:53.296Z,58.99
2023-04-12T03:36:53.403Z,58.82
2023-04-12T03:37:53.445Z,58.47
2023-04-12T03:38:53.562Z,58.67
2023-04-12T03:39:53.657Z,58.57
2023-04-12T03:40:53.758Z,59.62
2023-04-12T03:41:53.862Z,58.92
2023-04-12T03:42:53.958Z,59.09
2023-04-12T03:43:54.158Z,58.79
2023-04-12T03:44:54.172Z,58.51
2023-04-12T03:45:54.275Z,58.41
2023-04-12T03:46:54.454Z,58.92
2023-04-12T03:47:54.521Z,58.74
2023-04-12T03:48:54.559Z,59.12
2023-04-12T03:50:54.733Z,58.63
2023-04-12T03:51:54.800Z,59.79
2023-04-12T03:52:54.866Z,60.05
2023-04-12T03:53:55.105Z,59.65
2023-04-12T03:54:55.012Z,58.97
2023-04-12T03:55:55.079Z,58.91
2023-04-12T03:56:55.152Z,59.16
2023-04-12T03:57:55.230Z,58.50
2023-04-12T03:58:55.303Z,58.65
2023-04-12T03:59:55.395Z,58.40
2023-04-12T04:00:55.447Z,58.75
2023-04-12T04:01:55.536Z,58.59
2023-04-12T04:02:55.633Z,59.12
2023-04-12T04:03:56.232Z,58.76
2023-04-12T04:04:55.799Z,59.14
2023-04-12T04:05:55.835Z,59.33
2023-04-12T04:06:55.907Z,59.24
2023-04-12T04:07:55.983Z,59.27
2023-04-12T04:08:56.062Z,58.55
2023-04-12T04:09:56.148Z,58.06
2023-04-12T04:10:56.198Z,57.87
2023-04-12T04:11:56.278Z,57.89
2023-04-12T04:12:56.382Z,58.31
2023-04-12T04:13:56.626Z,58.24
2023-04-12T04:14:56.514Z,58.04
2023-04-12T04:15:56.636Z,58.00
2023-04-12T04:16:56.698Z,58.27
2023-04-12T04:17:56.806Z,58.36
2023-04-12T04:18:56.825Z,58.37
2023-04-12T04:19:56.908Z,58.08
2023-04-12T04:20:56.977Z,58.03
2023-04-12T04:21:57.070Z,58.16
2023-04-12T04:22:57.141Z,58.82
2023-04-12T04:23:57.418Z,58.76
2023-04-12T04:24:57.278Z,58.68
2023-04-12T04:25:57.367Z,58.64
2023-04-12T04:26:57.430Z,58.70
2023-04-12T04:27:57.503Z,58.92
2023-04-12T04:28:57.622Z,58.83
2023-04-12T04:29:57.667Z,58.49
2023-04-12T04:30:57.743Z,59.08
2023-04-12T04:31:57.850Z,59.11
2023-04-12T04:32:57.897Z,58.41
2023-04-12T04:33:58.081Z,58.24
2023-04-12T04:34:58.031Z,58.06
2023-04-12T04:35:58.183Z,58.12
2023-04-12T04:36:58.179Z,57.71
2023-04-12T04:37:58.282Z,57.27
2023-04-12T04:38:58.342Z,58.13
2023-04-12T04:39:58.422Z,58.16
2023-04-12T04:40:58.510Z,58.72
2023-04-12T04:41:58.588Z,58.75
2023-04-12T04:42:58.672Z,59.06
2023-04-12T04:43:58.839Z,58.70
2023-04-12T04:44:58.821Z,58.63
2023-04-12T04:45:59.018Z,58.40
2023-04-12T04:46:58.980Z,58.27
2023-04-12T04:47:59.087Z,58.20
2023-04-12T04:48:59.113Z,58.36
2023-04-12T04:49:59.190Z,58.46
2023-04-12T04:50:59.260Z,58.89
2023-04-12T04:51:59.330Z,58.79
2023-04-12T04:52:59.414Z,58.99
2023-04-12T04:53:59.492Z,59.32
2023-04-12T04:54:59.572Z,59.14
2023-04-12T04:55:59.697Z,59.12
2023-04-12T04:56:59.791Z,59.04
2023-04-12T04:58:00.160Z,59.21
2023-04-12T04:59:00.238Z,59.40
2023-04-12T05:00:00.195Z,59.00
2023-04-12T05:01:00.345Z,59.06
2023-04-12T05:02:00.537Z,59.05
2023-04-12T05:03:00.635Z,59.31
2023-04-12T05:04:00.841Z,59.14
2023-04-12T05:05:00.863Z,59.18
2023-04-12T05:06:00.983Z,58.98
2023-04-12T05:07:01.102Z,59.12
2023-04-12T05:08:01.206Z,59.20
2023-04-12T05:09:01.318Z,59.08
2023-04-12T05:10:01.461Z,59.40
2023-04-12T05:11:01.575Z,59.15
2023-04-12T05:12:01.689Z,59.01
2023-04-12T05:13:02.778Z,58.71
2023-04-12T05:14:01.952Z,58.48
2023-04-12T05:16:02.122Z,58.63
2023-04-12T05:17:02.197Z,58.59
2023-04-12T05:18:02.369Z,58.32
2023-04-12T05:19:02.339Z,58.22
2023-04-12T05:20:02.428Z,58.38
2023-04-12T05:21:03.294Z,58.23
2023-04-12T05:22:02.578Z,58.00
2023-04-12T05:23:02.653Z,58.37
2023-04-12T05:24:02.793Z,58.08
2023-04-12T05:25:02.814Z,58.22
2023-04-12T05:26:03.792Z,58.07
2023-04-12T05:27:03.139Z,58.04
2023-04-12T05:28:03.314Z,58.53
2023-04-12T05:29:03.444Z,58.28
2023-04-12T05:30:03.190Z,58.13
2023-04-12T05:31:03.850Z,58.08
2023-04-12T05:32:03.351Z,58.23
2023-04-12T05:33:03.429Z,58.32
2023-04-12T05:34:03.477Z,58.11
2023-04-12T05:35:03.593Z,58.02
2023-04-12T05:36:03.750Z,58.08
2023-04-12T05:37:03.723Z,58.27
2023-04-12T05:38:03.788Z,58.03
2023-04-12T05:39:03.850Z,58.47
2023-04-12T05:40:03.924Z,58.70
2023-04-12T05:41:04.013Z,58.74
2023-04-12T05:42:04.088Z,58.76
2023-04-12T05:43:04.157Z,58.87
2023-04-12T05:44:04.229Z,58.56
2023-04-12T05:45:04.463Z,58.35
2023-04-12T05:46:04.429Z,58.07
2023-04-12T05:47:04.486Z,58.27
2023-04-12T05:48:04.615Z,58.05
2023-04-12T05:49:04.636Z,58.23
2023-04-12T05:50:06.401Z,58.15
2023-04-12T05:51:04.795Z,58.22
2023-04-12T05:52:04.878Z,57.98
2023-04-12T05:53:04.971Z,57.86
2023-04-12T05:54:05.063Z,57.53
2023-04-12T05:55:05.227Z,57.65
2023-04-12T05:56:05.544Z,57.50
2023-04-12T05:57:05.681Z,57.84
2023-04-12T05:58:05.651Z,57.79
2023-04-12T05:59:05.786Z,57.78
2023-04-12T06:00:05.927Z,58.14
2023-04-12T06:01:06.084Z,57.85
2023-04-12T06:02:06.245Z,57.95
2023-04-12T06:03:06.568Z,57.99
2023-04-12T06:04:06.586Z,57.84
2023-04-12T06:05:06.695Z,57.89
2023-04-12T06:06:06.767Z,57.70
2023-04-12T06:07:06.911Z,57.84
2023-04-12T06:08:07.055Z,57.74
2023-04-12T06:09:07.205Z,57.40
2023-04-12T06:10:07.456Z,57.34
2023-04-12T06:11:07.488Z,57.62
2023-04-12T06:12:07.645Z,57.79
2023-04-12T06:13:07.787Z,57.80
2023-04-12T06:14:09.461Z,58.18
2023-04-12T06:15:08.008Z,57.69
2023-04-12T06:16:08.094Z,57.48
2023-04-12T06:17:08.179Z,57.66
2023-04-12T06:18:08.366Z,57.65
2023-04-12T06:19:08.349Z,57.76
2023-04-12T06:20:08.403Z,57.92
2023-04-12T06:21:08.482Z,58.01
2023-04-12T06:22:08.557Z,57.91
2023-04-12T06:23:08.636Z,58.11
2023-04-12T06:24:08.726Z,57.90
2023-04-12T06:25:08.992Z,58.00
2023-04-12T06:26:08.892Z,57.70
2023-04-12T06:27:08.969Z,57.89
2023-04-12T06:28:09.063Z,58.26
2023-04-12T06:29:09.132Z,58.02
2023-04-12T06:30:09.713Z,58.29
2023-04-12T06:31:10.776Z,58.39
2023-04-12T06:32:09.374Z,58.39
2023-04-12T06:33:09.458Z,57.93
2023-04-12T06:34:09.534Z,57.98
2023-04-12T06:35:09.611Z,57.87
2023-04-12T06:36:09.764Z,58.04
2023-04-12T06:37:09.777Z,58.07
2023-04-12T06:38:09.859Z,57.80
2023-04-12T06:39:12.347Z,57.77
2023-04-12T06:40:10.036Z,57.68
2023-04-12T06:41:10.190Z,57.55
2023-04-12T06:42:11.580Z,57.39
2023-04-12T06:43:11.309Z,57.30
2023-04-12T06:44:10.510Z,56.94
2023-04-12T06:45:10.649Z,57.29
2023-04-12T06:46:10.808Z,57.63
2023-04-12T06:47:11.062Z,57.74
2023-04-12T06:48:11.088Z,57.75
2023-04-12T06:49:11.223Z,57.71
2023-04-12T06:50:11.340Z,57.71
2023-04-12T06:51:12.661Z,57.58
2023-04-12T06:52:11.657Z,57.62
2023-04-12T06:53:11.750Z,57.59
2023-04-12T06:54:13.803Z,57.70
2023-04-12T06:55:11.915Z,57.59
2023-04-12T06:56:11.993Z,57.98
2023-04-12T06:57:12.077Z,57.85
2023-04-12T06:58:12.166Z,57.60
2023-04-12T06:59:12.258Z,57.73
2023-04-12T07:00:12.335Z,57.64
2023-04-12T07:01:12.480Z,57.65
2023-04-12T07:02:12.564Z,57.46
2023-04-12T07:03:15.438Z,57.50
2023-04-12T07:04:13.756Z,57.57
2023-04-12T07:05:12.856Z,57.51
2023-04-12T07:06:24.444Z,57.64
2023-04-12T07:07:14.070Z,57.22
2023-04-12T07:08:13.377Z,57.25
2023-04-12T07:09:13.329Z,57.02
2023-04-12T07:10:13.302Z,57.06
2023-04-12T07:11:21.008Z,56.92
2023-04-12T07:12:14.465Z,56.85
2023-04-12T07:13:14.177Z,56.83
2023-04-12T07:14:13.607Z,57.13
2023-04-12T07:15:13.832Z,57.21
2023-04-12T07:16:13.782Z,57.25
2023-04-12T07:17:13.850Z,56.79
2023-04-12T07:18:13.924Z,56.95
2023-04-12T07:19:14.088Z,56.80
2023-04-12T07:20:14.120Z,56.84
2023-04-12T07:21:14.226Z,56.82
2023-04-12T07:22:14.446Z,56.87
2023-04-12T07:23:14.458Z,57.06
2023-04-12T07:24:14.623Z,57.40
2023-04-12T07:25:14.899Z,57.14
2023-04-12T07:26:14.910Z,57.32
2023-04-12T07:27:15.044Z,57.64
2023-04-12T07:28:15.196Z,57.58
2023-04-12T07:29:15.439Z,57.51
2023-04-12T07:30:15.479Z,57.80
2023-04-12T07:31:15.622Z,57.65
2023-04-12T07:32:15.766Z,57.78
2023-04-12T07:33:19.520Z,57.95
2023-04-12T07:34:16.229Z,57.94
2023-04-12T07:35:16.194Z,57.47
2023-04-12T07:36:16.328Z,56.87
2023-04-12T07:37:16.336Z,56.89
2023-04-12T07:38:17.080Z,56.83
2023-04-12T07:39:16.497Z,57.32
2023-04-12T07:40:16.569Z,57.61
2023-04-12T07:41:16.646Z,57.60
2023-04-12T07:42:16.736Z,57.52
2023-04-12T07:43:16.814Z,57.65
2023-04-12T07:44:16.898Z,58.10
2023-04-12T07:45:16.979Z,57.74
2023-04-12T07:46:17.064Z,57.58
2023-04-12T07:47:17.130Z,57.78
2023-04-12T07:48:17.232Z,57.68
2023-04-12T07:49:17.296Z,57.80
2023-04-12T07:50:17.380Z,57.71
2023-04-12T07:51:17.512Z,58.22
2023-04-12T07:52:17.561Z,58.20
2023-04-12T07:53:17.630Z,58.13
2023-04-12T07:54:17.715Z,57.89
2023-04-12T07:55:17.805Z,58.29
2023-04-12T07:56:17.954Z,58.06
2023-04-12T07:57:18.067Z,58.78
2023-04-12T07:58:18.211Z,58.51
2023-04-12T07:59:18.381Z,57.80
2023-04-12T08:00:18.520Z,57.61
2023-04-12T08:01:18.651Z,57.31
2023-04-12T08:02:18.873Z,57.24
2023-04-12T08:03:19.072Z,57.24
2023-04-12T08:04:19.204Z,57.75
2023-04-12T08:05:19.252Z,57.86
2023-04-12T08:06:19.370Z,58.01
2023-04-12T08:07:19.548Z,58.18
2023-04-12T08:08:20.402Z,57.99
2023-04-12T08:09:19.801Z,58.18
2023-04-12T08:10:19.932Z,58.67
2023-04-12T08:11:20.062Z,58.98
2023-04-12T08:12:20.213Z,58.29
2023-04-12T08:13:20.336Z,58.75
2023-04-12T08:14:21.233Z,58.42
2023-04-12T08:15:20.596Z,59.49
2023-04-12T08:16:20.769Z,58.94
2023-04-12T08:17:20.987Z,59.21
2023-04-12T08:18:21.035Z,59.26
2023-04-12T08:19:21.165Z,59.74
2023-04-12T08:20:21.326Z,59.55
2023-04-12T08:21:21.434Z,59.49
2023-04-12T08:22:21.583Z,59.42
2023-04-12T08:23:21.738Z,59.45
2023-04-12T08:24:22.094Z,59.48
2023-04-12T08:25:22.024Z,59.63
2023-04-12T08:26:22.165Z,59.60
2023-04-12T08:27:22.829Z,59.61
2023-04-12T08:28:22.429Z,59.79
2023-04-12T08:29:22.557Z,60.49
2023-04-12T08:30:22.653Z,60.04
2023-04-12T08:31:22.888Z,60.25
2023-04-12T08:32:23.826Z,60.16
2023-04-12T08:33:23.182Z,60.30
2023-04-12T08:34:23.195Z,59.87
2023-04-12T08:35:23.415Z,59.70
2023-04-12T08:36:23.496Z,60.02
2023-04-12T08:37:24.633Z,59.63
2023-04-12T08:38:37.324Z,59.65
2023-04-12T08:39:24.766Z,59.47
2023-04-12T08:40:23.846Z,59.36
2023-04-12T08:41:23.948Z,59.67
2023-04-12T08:42:24.043Z,59.74
2023-04-12T08:43:24.093Z,60.05
2023-04-12T08:44:24.179Z,60.01
2023-04-12T08:45:24.262Z,60.05
2023-04-12T08:46:25.350Z,60.08
2023-04-12T08:47:24.472Z,59.94
2023-04-12T08:48:24.561Z,59.84
2023-04-12T08:49:24.580Z,59.93
2023-04-12T08:50:24.653Z,59.65
2023-04-12T08:51:24.746Z,59.54
2023-04-12T08:52:24.874Z,59.34
2023-04-12T08:53:25.194Z,59.42
2023-04-12T08:54:25.102Z,59.73
2023-04-12T08:55:25.209Z,59.85
2023-04-12T08:56:25.343Z,59.60
2023-04-12T08:57:25.409Z,59.95
2023-04-12T08:58:25.527Z,59.19
2023-04-12T08:59:25.629Z,58.81
2023-04-12T09:00:25.792Z,59.09
2023-04-12T09:01:25.907Z,58.66
2023-04-12T09:02:27.063Z,59.26
2023-04-12T09:03:26.277Z,59.26
2023-04-12T09:04:26.356Z,59.37
2023-04-12T09:05:26.451Z,58.38
2023-04-12T09:06:26.545Z,59.12
2023-04-12T09:07:26.675Z,59.55
2023-04-12T09:08:26.785Z,59.23
2023-04-12T09:09:26.895Z,59.06
2023-04-12T09:10:26.996Z,58.98
2023-04-12T09:11:27.127Z,58.71
2023-04-12T09:12:27.254Z,58.83
2023-04-12T09:13:27.297Z,58.70
2023-04-12T09:14:28.326Z,59.01
2023-04-12T09:15:27.472Z,59.39
2023-04-12T09:16:27.560Z,59.21
2023-04-12T09:17:27.692Z,59.25
2023-04-12T09:18:27.738Z,60.99
2023-04-12T09:19:27.825Z,60.89
2023-04-12T09:20:27.938Z,60.57
2023-04-12T09:21:28.055Z,60.31
2023-04-12T09:22:28.181Z,60.69
2023-04-12T09:23:28.282Z,62.80
2023-04-12T09:24:28.434Z,62.70
2023-04-12T09:25:28.495Z,63.20
2023-04-12T09:26:28.580Z,64.57
2023-04-12T09:27:28.680Z,63.50
2023-04-12T09:28:28.802Z,63.66
2023-04-12T09:29:28.914Z,64.70
2023-04-12T09:30:29.016Z,64.67
2023-04-12T09:31:29.134Z,64.73
2023-04-12T09:32:29.264Z,65.49
2023-04-12T09:33:29.312Z,64.14
2023-04-12T09:34:29.435Z,62.81
2023-04-12T09:35:29.551Z,64.66
2023-04-12T09:36:29.721Z,64.15
2023-04-12T09:37:29.837Z,63.37
2023-04-12T09:38:29.984Z,63.78
2023-04-12T09:39:30.090Z,62.93
2023-04-12T09:40:30.216Z,62.45
2023-04-12T09:41:30.316Z,62.19
2023-04-12T09:42:34.079Z,62.28
2023-04-12T09:43:30.501Z,62.14
2023-04-12T09:44:30.572Z,62.14
2023-04-12T09:45:30.636Z,62.08
2023-04-12T09:46:30.716Z,61.74
2023-04-12T09:47:30.778Z,61.73
2023-04-12T09:48:30.838Z,61.92
2023-04-12T09:49:30.889Z,61.81
2023-04-12T09:50:30.968Z,62.86
2023-04-12T09:51:31.015Z,61.65
2023-04-12T09:52:32.407Z,61.38
2023-04-12T09:53:31.257Z,61.60
2023-04-12T09:54:31.752Z,61.92
2023-04-12T09:55:31.282Z,61.33
2023-04-12T09:56:31.365Z,60.77
2023-04-12T09:57:31.396Z,60.48
2023-04-12T09:58:31.757Z,60.53
2023-04-12T09:59:31.515Z,60.42
2023-04-12T10:00:31.590Z,60.15
2023-04-12T10:01:32.655Z,60.20
2023-04-12T10:02:31.856Z,60.34
2023-04-12T10:03:31.895Z,60.22
2023-04-12T10:04:31.842Z,59.95
2023-04-12T10:05:31.887Z,59.51
2023-04-12T10:06:31.937Z,58.96
2023-04-12T10:07:31.934Z,59.43
2023-04-12T10:08:32.031Z,58.81
2023-04-12T10:09:32.033Z,59.09
2023-04-12T10:10:32.155Z,58.48
2023-04-12T10:11:32.250Z,57.73
2023-04-12T10:12:32.847Z,57.62
2023-04-12T10:13:32.486Z,57.68
2023-04-12T10:14:32.534Z,57.77
2023-04-12T10:15:32.634Z,57.97
2023-04-12T10:16:32.769Z,58.02
2023-04-12T10:17:33.075Z,57.31
2023-04-12T10:18:32.921Z,57.22
2023-04-12T10:19:33.048Z,57.14
2023-04-12T10:20:33.089Z,57.25
2023-04-12T10:21:33.204Z,57.07
2023-04-12T10:22:33.275Z,57.97
2023-04-12T10:23:33.404Z,57.03
2023-04-12T10:24:33.498Z,56.46
2023-04-12T10:25:33.639Z,56.35
2023-04-12T10:26:33.703Z,56.35
2023-04-12T10:27:33.800Z,56.14
2023-04-12T10:28:33.902Z,55.70
2023-04-12T10:29:33.986Z,55.66
2023-04-12T10:30:34.099Z,56.65
2023-04-12T10:31:34.230Z,56.59
2023-04-12T10:32:35.417Z,57.33
2023-04-12T10:33:34.334Z,58.69
2023-04-12T10:34:34.426Z,57.17
2023-04-12T10:35:34.541Z,56.50
2023-04-12T10:36:34.619Z,56.45
2023-04-12T10:37:34.697Z,56.95
2023-04-12T10:38:36.095Z,56.59
2023-04-12T10:39:34.887Z,56.17
2023-04-12T10:40:34.955Z,56.36
2023-04-12T10:41:35.061Z,56.70
2023-04-12T10:42:35.121Z,56.52
2023-04-12T10:43:35.204Z,56.59
2023-04-12T10:44:36.210Z,56.77
2023-04-12T10:45:35.291Z,56.84
2023-04-12T10:46:35.456Z,56.34
2023-04-12T10:47:35.327Z,56.39
2023-04-12T10:48:35.369Z,56.44
2023-04-12T10:49:35.360Z,56.83
2023-04-12T10:50:35.459Z,56.88
2023-04-12T10:51:35.429Z,55.74
2023-04-12T10:52:35.463Z,55.94
2023-04-12T10:53:35.486Z,56.66
2023-04-12T10:54:35.701Z,56.12
2023-04-12T10:55:35.602Z,55.66
2023-04-12T10:56:35.591Z,55.81
2023-04-12T10:57:35.659Z,55.78
2023-04-12T10:58:35.651Z,55.63
2023-04-12T10:59:46.860Z,55.66
2023-04-12T11:00:36.765Z,55.88
2023-04-12T11:01:38.335Z,55.35
2023-04-12T11:02:35.896Z,54.92
2023-04-12T11:03:35.872Z,54.73
2023-04-12T11:04:35.925Z,54.91
2023-04-12T11:05:35.847Z,54.97
2023-04-12T11:06:35.854Z,55.21
2023-04-12T11:07:36.373Z,55.54
2023-04-12T11:08:36.894Z,55.09
2023-04-12T11:09:36.944Z,54.30
2023-04-12T11:10:35.922Z,54.21
2023-04-12T11:11:35.915Z,56.06
2023-04-12T11:12:35.931Z,54.66
2023-04-12T11:13:36.012Z,55.05
2023-04-12T11:14:35.983Z,56.90
2023-04-12T11:15:36.174Z,58.06
2023-04-12T11:16:36.070Z,55.47
2023-04-12T11:17:37.799Z,55.94
2023-04-12T11:18:36.230Z,56.68
2023-04-12T11:19:36.134Z,56.54
2023-04-12T11:20:36.160Z,56.04
2023-04-12T11:21:36.191Z,56.65
2023-04-12T11:22:36.223Z,55.74
2023-04-12T11:23:36.248Z,55.81
2023-04-12T11:24:36.293Z,55.58
2023-04-12T11:25:36.281Z,56.17
2023-04-12T11:26:36.290Z,55.98
2023-04-12T11:27:36.298Z,56.06
2023-04-12T11:28:36.308Z,55.85
2023-04-12T11:29:36.345Z,56.62
2023-04-12T11:30:36.432Z,56.64
2023-04-12T11:31:36.781Z,56.58
2023-04-12T11:32:36.556Z,55.73
2023-04-12T11:33:36.587Z,57.03
2023-04-12T11:34:36.662Z,56.61
2023-04-12T11:35:36.730Z,56.02
2023-04-12T11:36:36.837Z,55.66
2023-04-12T11:37:36.862Z,55.15
2023-04-12T11:38:36.951Z,55.08
2023-04-12T11:39:37.003Z,55.41
2023-04-12T11:40:37.059Z,54.93
2023-04-12T11:41:37.274Z,54.34
2023-04-12T11:42:38.360Z,54.40
2023-04-12T11:43:37.537Z,54.53
2023-04-12T11:44:54.460Z,54.49
2023-04-12T11:45:38.615Z,55.54
2023-04-12T11:46:37.631Z,55.59
2023-04-12T11:47:37.758Z,55.75
2023-04-12T11:48:37.670Z,55.05
2023-04-12T11:49:37.693Z,54.31
2023-04-12T11:50:37.713Z,54.39
2023-04-12T11:51:37.729Z,54.23
2023-04-12T11:52:37.750Z,53.99
2023-04-12T11:53:37.761Z,55.38
2023-04-12T11:54:37.748Z,54.21
2023-04-12T11:55:37.792Z,54.66
2023-04-12T11:56:37.867Z,54.40
2023-04-12T11:57:37.938Z,55.36
2023-04-12T11:58:37.986Z,54.67
2023-04-12T11:59:38.061Z,54.61
2023-04-12T12:00:38.121Z,54.97
2023-04-12T12:01:38.189Z,54.24
2023-04-12T12:02:43.756Z,54.58
2023-04-12T12:03:39.366Z,54.12
2023-04-12T12:04:38.344Z,54.91
2023-04-12T12:05:38.308Z,54.12
2023-04-12T12:06:38.643Z,54.16
2023-04-12T12:07:38.228Z,53.65
2023-04-12T12:08:38.242Z,53.81
2023-04-12T12:09:38.230Z,54.26
2023-04-12T12:10:46.951Z,54.11
2023-04-12T12:11:39.248Z,53.94
2023-04-12T12:12:38.230Z,55.01
2023-04-12T12:13:38.397Z,54.01
2023-04-12T12:14:38.246Z,54.49
2023-04-12T12:15:38.254Z,54.32
2023-04-12T12:16:38.254Z,54.86
2023-04-12T12:17:38.288Z,54.20
2023-04-12T12:18:38.245Z,55.18
2023-04-12T12:19:38.237Z,53.99
2023-04-12T12:20:38.241Z,53.52
2023-04-12T12:21:38.264Z,53.83
2023-04-12T12:22:38.266Z,53.37
2023-04-12T12:23:38.271Z,53.52
2023-04-12T12:24:42.081Z,54.07
2023-04-12T12:25:39.291Z,54.04
2023-04-12T12:26:38.305Z,53.96
2023-04-12T12:27:38.322Z,53.32
2023-04-12T12:28:38.304Z,53.40
2023-04-12T12:29:38.285Z,53.94
2023-04-12T12:30:38.285Z,53.95
2023-04-12T12:31:39.262Z,54.24
2023-04-12T12:32:38.352Z,53.23
2023-04-12T12:34:00.204Z,52.58
2023-04-12T12:34:39.289Z,52.88
2023-04-12T12:35:38.328Z,53.41
2023-04-12T12:36:38.288Z,52.95
2023-04-12T12:37:38.287Z,52.87
2023-04-12T12:38:38.304Z,53.17
2023-04-12T12:39:38.277Z,53.70
2023-04-12T12:40:38.287Z,53.07
2023-04-12T12:41:38.389Z,53.89
2023-04-12T12:42:38.292Z,53.94
2023-04-12T12:43:38.289Z,53.46
2023-04-12T12:44:38.282Z,53.50
2023-04-12T12:45:38.265Z,53.05
2023-04-12T12:46:51.934Z,53.32
2023-04-12T12:47:39.407Z,53.30
2023-04-12T12:48:38.310Z,53.25
2023-04-12T12:49:38.247Z,53.02
2023-04-12T12:50:38.198Z,53.20
2023-04-12T12:51:38.185Z,52.96
2023-04-12T12:52:38.188Z,53.00
2023-04-12T12:53:38.179Z,53.42
2023-04-12T12:54:41.540Z,52.76
2023-04-12T12:55:38.151Z,53.11